Oconomowoc, Wisconsin
Current Conditions -  °F | °C
As of 2:55 PM on Saturday 25 Oct 2014 (Local Time) from KRYV Reporting Station
Clear Clear  
Wind Chill: 67°   Ceiling: Unl
Heat Index: 67°   Visibility: 10mi
Dew Point: 30°   Wind: 15mph
Humidity: 26%   Direction: 280°W
Pressure: 29.9"   Gusts: 25mph
Location:  43.11°N, 88.5°W
Report Text: KRYV 251955Z AUTO 28013G22KT 10SM CLR 19/M01 A2990 RMK AO2 T01931010
Loading
Personal Weather Stations






























Interactive Weather Map New forecast layout! Learn more

10-Day Weather Forecast

Advertisements
Track Severe Weather on mobile